Time;durP1;ratioP1;P1;durP2;ratioP2;P2;SDS_P1;SDS_P2;PMS_P1;PMS_P2;Temp;Humidity;BMP_temperature;BMP_pressure;BME280_temperature;BME280_humidity;BME280_pressure;Samples;Min_cycle;Max_cycle;Signal;HPM_P1;HPM_P2
2023/11/27 00:02:11;;;;;;;1.85;1.20;;;;;;;1.59;61.17;99372.28;5132228;27;20091;-40
2023/11/27 00:04:37;;;;;;;2.15;1.38;;;;;;;1.45;62.66;99371.06;5132567;27;20085;-40
2023/11/27 00:07:02;;;;;;;1.60;1.40;;;;;;;1.66;61.10;99379.38;5132697;27;20023;-40
2023/11/27 00:09:28;;;;;;;1.75;1.35;;;;;;;1.26;63.00;99385.19;5132607;27;20059;-40
2023/11/27 00:11:53;;;;;;;1.80;1.30;;;;;;;1.17;62.87;99386.91;5132809;27;20025;-40
2023/11/27 00:14:18;;;;;;;1.55;1.20;;;;;;;1.40;62.61;99374.13;5132432;27;20030;-40
2023/11/27 00:16:44;;;;;;;1.63;1.20;;;;;;;1.27;62.82;99392.88;5132544;27;20309;-40
2023/11/27 00:19:09;;;;;;;1.98;1.20;;;;;;;1.32;62.64;99397.66;5131847;27;20027;-40
2023/11/27 00:21:35;;;;;;;6.60;3.78;;;;;;;1.26;62.87;99400.91;5132313;27;20020;-40
2023/11/27 00:24:00;;;;;;;2.75;1.95;;;;;;;1.55;61.84;99413.75;5132391;27;20038;-41
2023/11/27 00:26:26;;;;;;;1.92;1.27;;;;;;;1.67;62.14;99409.06;5132349;27;20059;-40
2023/11/27 00:28:52;;;;;;;2.53;1.38;;;;;;;1.78;61.81;99395.69;5132246;27;20030;-42
2023/11/27 00:31:17;;;;;;;1.80;1.27;;;;;;;1.32;63.47;99427.31;5132214;27;20027;-40
2023/11/27 00:33:45;;;;;;;1.52;1.35;;;;;;;1.37;63.11;99426.84;5113557;27;20079;-41
2023/11/27 00:36:12;;;;;;;2.05;1.50;;;;;;;1.47;62.95;99427.63;5132274;27;20027;-41
2023/11/27 00:38:38;;;;;;;1.40;1.30;;;;;;;1.70;62.42;99417.44;5131929;27;20023;-41
2023/11/27 00:41:05;;;;;;;1.40;1.30;;;;;;;1.76;62.52;99418.63;5131920;27;20375;-39
2023/11/27 00:43:30;;;;;;;2.10;1.30;;;;;;;1.50;62.52;99421.22;5131741;27;20078;-40
2023/11/27 00:45:55;;;;;;;2.40;1.55;;;;;;;1.33;60.85;99425.53;5131480;27;20123;-40
2023/11/27 00:48:22;;;;;;;1.98;1.00;;;;;;;1.35;60.38;99431.44;5131745;27;20027;-41
2023/11/27 00:50:47;;;;;;;1.08;0.95;;;;;;;1.48;60.62;99439.75;5131800;27;20019;-40
2023/11/27 00:53:13;;;;;;;1.10;1.00;;;;;;;1.39;59.64;99435.44;5131693;27;20106;-40
2023/11/27 00:55:38;;;;;;;2.13;1.33;;;;;;;1.48;59.01;99437.13;5131163;27;20043;-40
2023/11/27 00:58:04;;;;;;;1.88;1.40;;;;;;;1.74;58.94;99429.28;5131729;27;20242;-40
2023/11/27 01:00:29;;;;;;;1.27;1.17;;;;;;;1.78;58.49;99435.03;5131577;27;20023;-40
2023/11/27 01:02:55;;;;;;;1.40;1.20;;;;;;;1.87;58.42;99421.00;5131425;27;20020;-41
2023/11/27 01:05:20;;;;;;;3.17;1.38;;;;;;;2.04;58.16;99439.47;5131244;27;20051;-41
2023/11/27 01:07:46;;;;;;;1.55;1.30;;;;;;;1.50;59.79;99452.69;5131488;27;20031;-40
2023/11/27 01:10:11;;;;;;;2.03;1.27;;;;;;;1.47;60.27;99443.34;5131412;27;20023;-41
2023/11/27 01:12:43;;;;;;;1.55;1.30;;;;;;;1.85;59.64;99446.56;5131360;27;20444;-41
2023/11/27 01:15:12;;;;;;;2.33;1.70;;;;;;;1.82;59.81;99452.13;5131632;27;20019;-41
2023/11/27 01:17:41;;;;;;;2.70;1.77;;;;;;;1.76;60.00;99457.97;5131367;27;20458;-41
2023/11/27 01:20:08;;;;;;;2.97;1.95;;;;;;;2.19;59.63;99466.78;5131072;27;20462;-41
2023/11/27 01:22:34;;;;;;;2.78;1.70;;;;;;;1.70;60.05;99475.16;5131088;27;20068;-41
2023/11/27 01:25:00;;;;;;;2.58;1.58;;;;;;;1.74;60.20;99479.13;5131250;27;20079;-42
2023/11/27 01:27:25;;;;;;;1.73;1.40;;;;;;;1.78;60.23;99473.59;5131255;27;20742;-42
2023/11/27 01:29:50;;;;;;;2.33;1.70;;;;;;;1.95;60.34;99470.91;5130819;27;20433;-42
2023/11/27 01:32:16;;;;;;;2.55;1.48;;;;;;;2.28;58.76;99478.97;5131385;27;20054;-41
2023/11/27 01:34:41;;;;;;;1.90;1.60;;;;;;;2.29;59.00;99477.19;5131244;27;20388;-42
2023/11/27 01:37:06;;;;;;;3.28;1.60;;;;;;;2.02;59.51;99492.13;5131118;27;20054;-42
2023/11/27 01:39:32;;;;;;;2.10;1.42;;;;;;;1.62;61.00;99487.38;5130610;27;20473;-41
2023/11/27 01:41:57;;;;;;;1.88;1.40;;;;;;;1.76;61.50;99486.84;5130753;27;20102;-42
2023/11/27 01:44:23;;;;;;;1.67;1.50;;;;;;;1.68;59.90;99482.38;5130883;28;20018;-40
2023/11/27 01:46:48;;;;;;;1.75;1.25;;;;;;;1.42;59.81;99473.63;5130928;28;20364;-42
2023/11/27 01:49:17;;;;;;;2.10;1.23;;;;;;;1.60;59.01;99490.19;5130695;28;20030;-40
2023/11/27 01:51:42;;;;;;;1.30;1.20;;;;;;;1.56;59.32;99481.78;5130879;27;20240;-44
2023/11/27 01:54:08;;;;;;;1.98;1.48;;;;;;;1.97;58.23;99483.06;5130171;28;20126;-41
2023/11/27 01:56:33;;;;;;;1.63;1.33;;;;;;;1.82;59.14;99475.72;5132011;27;20019;-41
2023/11/27 01:59:00;;;;;;;2.05;1.50;;;;;;;1.31;60.68;99479.91;5135018;27;20023;-41
2023/11/27 02:01:28;;;;;;;1.48;1.20;;;;;;;1.22;61.34;99475.56;5135320;27;20039;-40
2023/11/27 02:03:54;;;;;;;2.17;1.60;;;;;;;1.53;61.22;99479.44;5135139;27;20030;-43
2023/11/27 02:06:20;;;;;;;1.33;1.15;;;;;;;1.10;61.46;99452.19;5135052;27;20072;-40
2023/11/27 02:08:46;;;;;;;1.65;1.20;;;;;;;1.03;62.25;99484.38;5134585;27;20015;-40
2023/11/27 02:11:12;;;;;;;2.55;1.40;;;;;;;1.19;62.04;99489.00;5135032;27;20099;-40
2023/11/27 02:13:37;;;;;;;1.42;1.30;;;;;;;1.61;63.28;99485.75;5134699;27;20540;-41
2023/11/27 02:16:03;;;;;;;1.75;1.30;;;;;;;1.65;62.31;99497.59;5134753;27;20023;-43
2023/11/27 02:18:28;;;;;;;2.00;1.40;;;;;;;1.48;61.57;99502.69;5134730;27;20019;-41
2023/11/27 02:21:00;;;;;;;1.90;1.40;;;;;;;1.43;62.49;99504.09;5134782;27;20034;-43
2023/11/27 02:23:26;;;;;;;2.78;1.30;;;;;;;1.54;61.08;99509.13;5134573;27;20034;-42
2023/11/27 02:25:51;;;;;;;2.35;1.50;;;;;;;1.39;62.26;99506.22;5134366;27;20023;-41
2023/11/27 02:28:17;;;;;;;1.88;1.50;;;;;;;1.38;62.63;99494.06;5134497;27;20031;-45
2023/11/27 02:30:42;;;;;;;1.30;1.20;;;;;;;1.02;62.55;99508.97;5134559;27;20030;-39
2023/11/27 02:33:07;;;;;;;2.00;1.30;;;;;;;1.22;61.68;99507.88;5134594;27;20094;-41
2023/11/27 02:35:33;;;;;;;2.15;1.25;;;;;;;1.55;60.60;99508.97;5134370;27;20034;-42
2023/11/27 02:38:00;;;;;;;1.40;1.30;;;;;;;1.40;61.38;99505.25;5133852;27;20455;-42
2023/11/27 02:40:26;;;;;;;1.58;1.30;;;;;;;1.19;61.80;99504.72;5134114;27;20510;-42
2023/11/27 02:42:52;;;;;;;1.88;1.40;;;;;;;1.59;61.21;99509.50;5133680;27;20033;-40
2023/11/27 02:45:17;;;;;;;2.78;1.30;;;;;;;1.15;60.55;99509.44;5134116;27;20034;-40
2023/11/27 02:47:43;;;;;;;1.38;1.20;;;;;;;1.35;60.67;99510.09;5134164;27;20035;-40
2023/11/27 02:50:09;;;;;;;2.08;1.40;;;;;;;1.19;60.28;99513.41;5133672;27;20054;-40
2023/11/27 02:52:34;;;;;;;1.85;1.40;;;;;;;1.47;60.53;99524.66;5133572;27;20065;-40
2023/11/27 02:55:01;;;;;;;2.15;1.45;;;;;;;1.31;60.38;99524.47;5133269;27;20112;-40
2023/11/27 02:57:26;;;;;;;1.73;1.15;;;;;;;1.22;60.14;99518.34;5133819;27;20148;-40
2023/11/27 02:59:52;;;;;;;4.60;1.10;;;;;;;1.16;59.41;99514.53;5133574;27;20237;-40
2023/11/27 03:02:17;;;;;;;1.60;1.00;;;;;;;0.80;60.78;99504.94;5133769;27;20027;-42
2023/11/27 03:04:43;;;;;;;2.30;1.10;;;;;;;1.40;58.88;99515.72;5133659;27;20023;-41
2023/11/27 03:07:08;;;;;;;2.45;1.33;;;;;;;1.33;58.47;99504.19;5114141;27;20339;-42
2023/11/27 03:09:34;;;;;;;2.08;1.30;;;;;;;1.39;58.97;99518.50;5132775;27;20067;-42
2023/11/27 03:12:00;;;;;;;1.23;1.10;;;;;;;1.47;57.69;99532.53;5133384;27;20409;-42
2023/11/27 03:14:26;;;;;;;1.27;1.02;;;;;;;1.33;58.92;99533.03;5133603;27;20084;-39
2023/11/27 03:16:51;;;;;;;2.17;1.40;;;;;;;1.41;58.17;99533.13;5116628;27;20046;-43
2023/11/27 03:19:17;;;;;;;1.42;1.23;;;;;;;1.52;58.00;99534.69;5112915;28;20020;-42
2023/11/27 03:21:42;;;;;;;1.42;1.15;;;;;;;1.73;57.61;99550.09;5112778;28;20028;-41
2023/11/27 03:24:09;;;;;;;3.03;1.30;;;;;;;1.40;58.19;99538.50;5112595;28;20031;-41
2023/11/27 03:26:35;;;;;;;1.83;1.20;;;;;;;1.42;58.70;99541.81;5113334;28;20372;-41
2023/11/27 03:29:01;;;;;;;1.50;1.10;;;;;;;1.55;58.43;99552.75;5119824;27;20407;-41
2023/11/27 03:31:27;;;;;;;1.63;1.17;;;;;;;1.47;58.60;99558.75;5133709;27;20027;-41
2023/11/27 03:33:52;;;;;;;5.00;1.50;;;;;;;1.47;58.08;99553.50;5133367;27;20049;-40
2023/11/27 03:36:18;;;;;;;1.95;1.40;;;;;;;1.65;58.16;99552.66;5115101;27;20076;-41
2023/11/27 03:38:43;;;;;;;3.17;1.30;;;;;;;1.62;58.93;99551.19;5133748;27;20023;-42
2023/11/27 03:41:19;;;;;;;1.58;1.30;;;;;;;1.72;59.69;99551.09;5133643;27;20115;-41
2023/11/27 03:43:44;;;;;;;3.03;1.20;;;;;;;1.53;58.48;99555.50;5133957;27;20030;-41
2023/11/27 03:46:09;;;;;;;1.83;1.40;;;;;;;1.83;57.46;99557.91;5127303;27;20039;-41
2023/11/27 03:48:35;;;;;;;2.05;1.40;;;;;;;1.84;58.36;99552.50;5113061;28;20032;-41
2023/11/27 03:51:00;;;;;;;3.72;1.27;;;;;;;1.79;57.26;99556.56;5112932;28;20063;-41
2023/11/27 03:53:27;;;;;;;2.42;1.40;;;;;;;1.89;58.01;99549.44;5112705;28;20104;-42
2023/11/27 03:55:52;;;;;;;2.25;1.20;;;;;;;1.35;58.77;99552.91;5133206;27;20055;-41
2023/11/27 03:58:19;;;;;;;1.80;1.30;;;;;;;1.73;58.22;99547.47;5133772;27;20183;-41
2023/11/27 04:00:45;;;;;;;1.73;1.30;;;;;;;1.69;57.92;99549.59;5129291;27;20027;-41
2023/11/27 04:03:11;;;;;;;2.10;1.55;;;;;;;1.93;59.33;99548.97;5123764;27;20035;-41
2023/11/27 04:05:37;;;;;;;1.88;1.55;;;;;;;2.20;57.44;99551.63;5144986;27;20029;-42
2023/11/27 04:08:02;;;;;;;1.95;1.50;;;;;;;1.75;57.63;99550.78;5153960;27;20015;-41
2023/11/27 04:10:28;;;;;;;4.28;1.95;;;;;;;1.72;57.99;99548.47;5154054;27;20466;-41
2023/11/27 04:12:54;;;;;;;2.03;1.50;;;;;;;1.75;57.60;99556.88;5153986;27;20034;-41
2023/11/27 04:15:20;;;;;;;1.45;1.35;;;;;;;1.82;58.46;99554.47;5127082;27;20027;-41
2023/11/27 04:17:45;;;;;;;1.80;1.30;;;;;;;1.85;58.10;99563.84;5133133;27;20033;-41
2023/11/27 04:20:11;;;;;;;1.92;1.40;;;;;;;1.72;58.52;99561.59;5132544;27;20011;-41
2023/11/27 04:22:38;;;;;;;2.33;1.60;;;;;;;1.53;58.32;99570.44;5133028;27;20030;-40
2023/11/27 04:25:04;;;;;;;2.47;1.50;;;;;;;1.48;58.60;99581.34;5134255;27;20110;-43
2023/11/27 04:27:30;;;;;;;1.92;1.30;;;;;;;1.15;59.27;99569.72;5133330;27;20095;-41
2023/11/27 04:29:56;;;;;;;1.80;1.30;;;;;;;1.24;59.27;99573.22;5132687;27;20032;-41
2023/11/27 04:32:22;;;;;;;2.35;1.50;;;;;;;0.87;60.15;99582.00;5132947;27;20027;-41
2023/11/27 04:34:47;;;;;;;2.00;1.58;;;;;;;1.01;59.04;99581.53;5132477;27;20440;-41
2023/11/27 04:37:14;;;;;;;1.42;1.25;;;;;;;1.40;57.41;99583.91;5135619;27;20014;-41
2023/11/27 04:39:42;;;;;;;2.17;1.17;;;;;;;1.18;58.28;99593.00;5140943;27;20046;-41
2023/11/27 04:42:11;;;;;;;2.05;1.30;;;;;;;1.50;57.12;99602.19;5137644;27;20046;-41
2023/11/27 04:44:37;;;;;;;1.92;1.60;;;;;;;1.69;57.07;99598.63;5135513;27;20091;-41
2023/11/27 04:47:03;;;;;;;2.78;1.58;;;;;;;1.66;56.75;99598.94;5135450;27;20443;-41
2023/11/27 04:49:28;;;;;;;2.38;1.70;;;;;;;1.44;56.83;99601.00;5132483;27;20027;-41
2023/11/27 04:51:54;;;;;;;2.60;1.85;;;;;;;1.82;56.33;99598.25;5132769;27;20071;-41
2023/11/27 04:54:20;;;;;;;2.90;1.85;;;;;;;1.85;57.24;99590.91;5132053;27;20433;-41
2023/11/27 04:56:45;;;;;;;2.63;1.60;;;;;;;1.74;57.30;99594.56;5120049;27;20036;-41
2023/11/27 04:59:11;;;;;;;2.03;1.48;;;;;;;1.82;58.01;99598.25;5111704;28;20020;-42
2023/11/27 05:01:37;;;;;;;2.58;1.90;;;;;;;1.77;58.04;99593.44;5094085;27;20023;-41
2023/11/27 05:04:03;;;;;;;1.80;1.33;;;;;;;1.22;58.33;99609.25;5110964;28;20028;-43
2023/11/27 05:06:29;;;;;;;2.47;1.70;;;;;;;1.41;58.02;99589.97;5112174;27;20098;-42
2023/11/27 05:08:54;;;;;;;2.58;1.77;;;;;;;1.17;57.73;99600.03;5111931;28;20028;-41
2023/11/27 05:11:20;;;;;;;2.45;2.00;;;;;;;1.43;57.33;99588.88;5111300;28;20036;-42
2023/11/27 05:13:48;;;;;;;1.95;1.60;;;;;;;1.48;56.50;99601.53;5110614;28;20384;-41
2023/11/27 05:16:14;;;;;;;2.70;1.65;;;;;;;1.48;56.77;99591.84;5110426;28;20473;-43
2023/11/27 05:18:41;;;;;;;1.95;1.70;;;;;;;1.50;56.57;99603.00;5110949;28;20437;-41
2023/11/27 05:21:13;;;;;;;1.83;1.45;;;;;;;1.65;55.90;99602.50;5111445;27;20071;-41
2023/11/27 05:23:42;;;;;;;1.48;1.20;;;;;;;1.19;56.79;99601.72;5111305;28;20163;-42
2023/11/27 05:26:09;;;;;;;2.23;1.50;;;;;;;1.21;56.93;99603.19;5110900;28;20035;-41
2023/11/27 05:28:35;;;;;;;2.28;1.70;;;;;;;1.33;57.26;99588.94;5111733;28;20111;-42
2023/11/27 05:31:01;;;;;;;2.15;1.63;;;;;;;1.45;57.36;99600.03;5111509;28;20023;-43
2023/11/27 05:33:26;;;;;;;2.30;1.60;;;;;;;1.43;57.45;99595.88;5112023;28;20572;-42
2023/11/27 05:35:52;;;;;;;2.25;1.70;;;;;;;1.67;57.04;99598.75;5111687;28;20543;-43
2023/11/27 05:38:18;;;;;;;2.50;1.92;;;;;;;1.81;56.75;99604.47;5111395;27;20027;-43
2023/11/27 05:40:44;;;;;;;5.65;2.53;;;;;;;3.39;80.64;99612.16;5112173;28;20031;-44
2023/11/27 05:43:11;;;;;;;4.85;2.53;;;;;;;4.46;68.82;99617.50;5111683;28;20028;-44
2023/11/27 05:45:37;;;;;;;7.38;3.17;;;;;;;6.19;71.95;99618.34;5111834;28;20498;-45
2023/11/27 05:48:07;;;;;;;7.40;3.10;;;;;;;7.32;62.24;99623.63;5111847;28;20597;-44
2023/11/27 05:50:33;;;;;;;3.60;2.30;;;;;;;7.53;51.44;99628.16;5111988;28;20035;-45
2023/11/27 05:52:59;;;;;;;3.50;2.50;;;;;;;7.74;49.40;99622.88;5111587;28;20027;-44
2023/11/27 05:55:25;;;;;;;4.32;2.70;;;;;;;8.49;51.14;99633.16;5111515;28;20063;-44
2023/11/27 05:57:50;;;;;;;5.72;2.75;;;;;;;8.80;52.49;99633.59;5111432;28;20483;-43
2023/11/27 06:00:16;;;;;;;4.10;2.67;;;;;;;9.73;49.63;99640.34;5111205;28;20026;-43
2023/11/27 06:02:41;;;;;;;2.28;1.90;;;;;;;10.16;41.41;99637.34;5111565;28;20028;-43
2023/11/27 06:05:07;;;;;;;2.80;2.10;;;;;;;10.01;38.77;99634.88;5118442;27;20023;-44
2023/11/27 06:07:34;;;;;;;6.70;3.97;;;;;;;8.64;40.60;99644.47;5119594;27;20061;-42
2023/11/27 06:09:59;;;;;;;2.88;2.30;;;;;;;8.75;41.09;99651.09;5132336;28;20031;-43
2023/11/27 06:12:25;;;;;;;3.33;2.13;;;;;;;7.69;42.99;99659.72;5132189;28;20027;-42
2023/11/27 06:14:51;;;;;;;3.13;2.08;;;;;;;7.06;43.08;99661.97;5131355;28;20526;-43
2023/11/27 06:17:17;;;;;;;3.60;2.08;;;;;;;7.44;43.67;99657.38;5131616;28;20034;-42
2023/11/27 06:19:43;;;;;;;4.72;2.40;;;;;;;7.73;42.27;99663.63;5131077;28;20030;-45
2023/11/27 06:22:08;;;;;;;2.95;2.10;;;;;;;7.10;42.01;99667.72;5131188;28;20031;-43
2023/11/27 06:24:34;;;;;;;2.65;2.10;;;;;;;7.54;42.48;99665.03;5130827;28;20094;-43
2023/11/27 06:26:59;;;;;;;3.20;2.25;;;;;;;7.59;43.88;99664.47;5130440;28;20027;-42
2023/11/27 06:29:25;;;;;;;3.72;2.33;;;;;;;8.09;41.27;99672.53;5131032;28;20057;-44
2023/11/27 06:31:50;;;;;;;3.17;2.20;;;;;;;7.35;42.05;99684.13;5131173;28;20068;-43
2023/11/27 06:34:16;;;;;;;3.58;2.50;;;;;;;7.43;42.03;99687.50;5131773;27;20077;-42
2023/11/27 06:36:42;;;;;;;2.60;1.95;;;;;;;8.35;41.47;99679.94;5131660;28;20462;-43
2023/11/27 06:39:08;;;;;;;3.90;2.60;;;;;;;8.29;40.25;99696.59;5131553;28;20085;-44
2023/11/27 06:41:34;;;;;;;2.38;1.92;;;;;;;8.33;40.19;99698.69;5131293;27;20407;-44
2023/11/27 06:44:00;;;;;;;2.85;1.80;;;;;;;9.02;39.30;99693.75;5134939;27;20058;-43
2023/11/27 06:46:27;;;;;;;2.30;1.90;;;;;;;9.02;39.08;99688.44;5134853;27;20050;-45
2023/11/27 06:48:53;;;;;;;2.53;1.80;;;;;;;8.92;38.08;99702.84;5134963;27;20502;-42
2023/11/27 06:51:18;;;;;;;2.50;1.90;;;;;;;8.92;37.93;99702.03;5135325;27;20061;-43
2023/11/27 06:53:44;;;;;;;2.55;2.08;;;;;;;8.96;38.12;99703.28;5134853;27;20029;-42
2023/11/27 06:56:10;;;;;;;2.65;1.80;;;;;;;9.24;38.71;99711.25;5134800;27;20031;-44
2023/11/27 06:58:35;;;;;;;2.72;1.90;;;;;;;9.68;38.58;99703.91;5135166;27;20083;-42
2023/11/27 07:01:01;;;;;;;2.75;2.13;;;;;;;9.34;37.64;99706.38;5120781;27;20028;-41
2023/11/27 07:03:27;;;;;;;4.60;2.45;;;;;;;9.13;37.25;99706.47;5114361;28;20122;-41
2023/11/27 07:05:53;;;;;;;4.30;2.40;;;;;;;8.94;37.78;99706.13;5113141;28;20076;-42
2023/11/27 07:08:18;;;;;;;4.95;2.30;;;;;;;9.14;37.24;99692.19;5114188;28;20027;-44
2023/11/27 07:10:44;;;;;;;3.53;2.30;;;;;;;8.65;38.52;99703.69;5114729;28;20024;-44
2023/11/27 07:13:09;;;;;;;3.80;2.40;;;;;;;9.07;37.76;99697.44;5114075;28;20106;-44
2023/11/27 07:15:34;;;;;;;3.30;2.17;;;;;;;9.14;37.21;99698.31;5114217;28;20104;-43
2023/11/27 07:18:01;;;;;;;4.07;2.13;;;;;;;9.24;37.29;99703.28;5114218;28;20028;-43
2023/11/27 07:20:26;;;;;;;2.92;2.05;;;;;;;8.46;37.99;99698.00;5114124;28;20103;-43
2023/11/27 07:22:52;;;;;;;2.30;1.90;;;;;;;7.90;39.54;99713.72;5113937;28;20463;-42
2023/11/27 07:25:17;;;;;;;4.88;2.10;;;;;;;8.30;38.92;99703.53;5113860;28;20039;-42
2023/11/27 07:27:49;;;;;;;3.78;2.20;;;;;;;8.16;39.56;99699.94;5113436;28;20380;-41
2023/11/27 07:30:15;;;;;;;2.75;2.00;;;;;;;7.93;40.00;99706.22;5113672;28;20028;-43
2023/11/27 07:32:41;;;;;;;3.67;2.67;;;;;;;8.10;39.78;99711.31;5113470;28;20019;-41
2023/11/27 07:35:10;;;;;;;3.22;2.25;;;;;;;8.11;39.61;99710.28;5113835;28;20034;-43
2023/11/27 07:37:37;;;;;;;5.60;3.42;;;;;;;8.04;40.03;99720.81;5113475;28;20516;-41
2023/11/27 07:40:03;;;;;;;3.83;3.00;;;;;;;8.03;39.60;99708.56;5113269;28;20160;-41
2023/11/27 07:42:29;;;;;;;3.55;2.17;;;;;;;7.87;39.90;99720.22;5113381;28;20023;-41
2023/11/27 07:44:54;;;;;;;5.20;3.45;;;;;;;7.80;39.95;99721.97;5113832;27;20018;-43
2023/11/27 07:47:22;;;;;;;6.00;3.50;;;;;;;7.59;39.78;99720.91;5113464;28;20028;-42
2023/11/27 07:49:47;;;;;;;4.18;2.30;;;;;;;8.13;39.65;99732.13;5113350;28;20028;-42
2023/11/27 07:52:13;;;;;;;3.80;2.20;;;;;;;7.88;39.57;99724.53;5113067;28;20084;-42
2023/11/27 07:54:41;;;;;;;3.55;2.40;;;;;;;8.49;39.28;99724.16;5113139;28;20504;-42
2023/11/27 07:57:07;;;;;;;3.63;2.28;;;;;;;8.49;38.49;99728.63;5113021;28;20034;-45
2023/11/27 07:59:32;;;;;;;3.30;2.40;;;;;;;8.89;38.63;99736.91;5113196;28;20505;-44
2023/11/27 08:01:58;;;;;;;15.55;8.68;;;;;;;9.28;38.14;99738.22;5113685;28;20024;-42
2023/11/27 08:04:23;;;;;;;4.00;2.78;;;;;;;9.45;36.66;99739.53;5113166;28;20023;-43
2023/11/27 08:06:49;;;;;;;6.40;3.42;;;;;;;9.10;37.42;99738.72;5113160;28;20019;-42
2023/11/27 08:09:15;;;;;;;4.00;2.40;;;;;;;9.27;36.80;99744.53;5113043;28;20019;-41
2023/11/27 08:11:41;;;;;;;5.80;2.65;;;;;;;9.09;37.35;99734.44;5113316;28;20469;-43
2023/11/27 08:14:07;;;;;;;3.88;2.53;;;;;;;9.18;37.21;99727.97;5113446;28;20028;-42
2023/11/27 08:16:33;;;;;;;4.15;2.50;;;;;;;8.86;38.33;99735.47;5113023;28;20020;-44
2023/11/27 08:18:59;;;;;;;5.10;2.20;;;;;;;8.79;37.78;99731.94;5113233;28;20023;-41
2023/11/27 08:21:25;;;;;;;2.88;1.90;;;;;;;8.46;38.27;99731.69;5112942;28;20491;-43
2023/11/27 08:23:50;;;;;;;3.55;2.17;;;;;;;8.37;38.50;99738.91;5112646;28;20468;-41
2023/11/27 08:26:16;;;;;;;3.42;2.20;;;;;;;9.13;37.32;99740.97;5113334;28;20028;-42
2023/11/27 08:28:41;;;;;;;3.58;2.35;;;;;;;8.36;38.01;99743.38;5112251;28;20164;-43
2023/11/27 08:31:07;;;;;;;3.15;2.17;;;;;;;8.97;37.97;99737.63;5112695;28;20102;-41
2023/11/27 08:33:32;;;;;;;2.90;1.90;;;;;;;8.43;38.05;99740.00;5112650;28;20027;-42
2023/11/27 08:36:00;;;;;;;2.13;1.60;;;;;;;7.58;39.29;99751.06;5112286;28;20059;-41
2023/11/27 08:38:28;;;;;;;;;;;;;;;7.03;39.99;99747.81;5112943;28;20059;-43
2023/11/27 08:40:53;;;;;;;1.88;1.48;;;;;;;6.91;40.29;99744.00;5112474;28;19950;-41
2023/11/27 08:43:18;;;;;;;1.65;1.27;;;;;;;7.02;40.53;99742.72;5112643;28;20136;-41
2023/11/27 08:45:44;;;;;;;1.75;1.33;;;;;;;7.22;40.01;99743.03;5123103;27;20023;-41
2023/11/27 08:48:09;;;;;;;1.40;1.08;;;;;;;6.67;41.15;99749.50;5132645;27;20118;-43
2023/11/27 08:50:36;;;;;;;4.78;1.52;;;;;;;6.61;41.19;99751.03;5132972;27;20023;-41
2023/11/27 08:53:05;;;;;;;1.48;1.00;;;;;;;6.33;40.47;99751.53;5132667;27;20023;-42
2023/11/27 08:55:31;;;;;;;1.70;1.30;;;;;;;6.03;41.66;99747.91;5132703;27;20051;-42
2023/11/27 08:58:02;;;;;;;2.00;1.10;;;;;;;6.90;41.25;99752.09;5132718;27;20080;-43
2023/11/27 09:00:28;;;;;;;3.35;1.30;;;;;;;6.72;40.75;99747.94;5132567;27;20440;-42
2023/11/27 09:02:56;;;;;;;2.08;1.13;;;;;;;6.29;41.82;99730.94;5132481;27;20047;-44
2023/11/27 09:05:26;;;;;;;1.65;1.10;;;;;;;6.46;41.45;99743.84;5132252;27;20468;-43
2023/11/27 09:07:54;;;;;;;;;;;;;;;6.35;41.81;99738.16;5133063;27;20479;-44
2023/11/27 09:10:20;;;;;;;1.38;1.05;;;;;;;6.73;40.57;99722.31;5132703;27;19998;-43
2023/11/27 09:12:48;;;;;;;1.63;1.15;;;;;;;6.72;41.02;99741.81;5132384;27;20100;-43
2023/11/27 09:15:13;;;;;;;1.17;1.08;;;;;;;6.61;40.94;99745.72;5132757;27;20418;-42
2023/11/27 09:17:39;;;;;;;1.70;1.33;;;;;;;6.52;41.20;99733.56;5132381;27;20027;-43
2023/11/27 09:20:06;;;;;;;2.00;1.20;;;;;;;6.89;41.28;99742.50;5132132;27;20034;-42
2023/11/27 09:22:32;;;;;;;1.40;1.10;;;;;;;6.66;40.73;99746.00;5132682;27;20031;-44
2023/11/27 09:24:57;;;;;;;1.85;1.33;;;;;;;6.57;40.61;99747.91;5132494;27;20383;-43
2023/11/27 09:27:23;;;;;;;3.08;1.30;;;;;;;6.71;40.48;99751.59;5132217;27;20055;-43
2023/11/27 09:29:48;;;;;;;1.75;1.13;;;;;;;6.73;40.71;99744.28;5132203;27;20497;-45
2023/11/27 09:32:14;;;;;;;1.20;0.82;;;;;;;6.73;40.31;99746.94;5132300;27;20019;-43
2023/11/27 09:34:39;;;;;;;1.50;1.13;;;;;;;7.33;39.79;99744.38;5131963;27;20030;-42
2023/11/27 09:37:05;;;;;;;1.67;1.10;;;;;;;7.33;40.32;99739.91;5132551;27;20031;-41
2023/11/27 09:39:31;;;;;;;1.90;1.30;;;;;;;7.18;40.07;99745.19;5132023;27;20031;-43
2023/11/27 09:41:57;;;;;;;2.22;1.58;;;;;;;7.16;40.85;99739.28;5131971;27;20031;-44
2023/11/27 09:44:23;;;;;;;2.38;1.27;;;;;;;7.51;40.52;99733.44;5132113;27;20027;-44
2023/11/27 09:46:50;;;;;;;3.00;1.30;;;;;;;7.87;39.54;99732.66;5131777;28;20023;-43
2023/11/27 09:49:23;;;;;;;3.03;1.90;;;;;;;7.89;39.71;99734.09;5131677;28;20106;-42
2023/11/27 09:51:50;;;;;;;2.72;1.90;;;;;;;7.50;39.92;99735.28;5131297;28;20478;-41
2023/11/27 09:54:21;;;;;;;3.00;1.90;;;;;;;8.17;39.55;99734.22;5131835;28;20495;-43
2023/11/27 09:56:49;;;;;;;3.28;2.10;;;;;;;8.02;38.92;99731.59;5132035;28;20039;-42
2023/11/27 09:59:15;;;;;;;2.35;1.70;;;;;;;7.89;38.52;99730.66;5131871;28;20080;-43
2023/11/27 10:01:42;;;;;;;2.47;1.73;;;;;;;8.21;38.85;99721.41;5131526;28;20034;-44
2023/11/27 10:04:08;;;;;;;3.92;2.10;;;;;;;8.48;38.80;99725.16;5131996;28;20483;-43
2023/11/27 10:06:36;;;;;;;5.13;2.30;;;;;;;8.36;37.82;99722.16;5131953;28;20019;-43
2023/11/27 10:09:09;;;;;;;2.08;1.55;;;;;;;8.11;37.70;99728.84;5131804;28;20111;-43
2023/11/27 10:11:35;;;;;;;3.03;1.60;;;;;;;8.02;38.11;99728.97;5131892;28;20023;-42
2023/11/27 10:14:05;;;;;;;3.08;1.80;;;;;;;7.53;38.79;99720.84;5131709;28;20050;-41
2023/11/27 10:16:31;;;;;;;4.22;1.65;;;;;;;7.58;38.15;99721.91;5131890;27;20501;-43
2023/11/27 10:19:08;;;;;;;2.55;1.70;;;;;;;7.39;38.96;99717.19;5135363;27;20401;-42
2023/11/27 10:21:35;;;;;;;1.73;1.45;;;;;;;7.14;38.92;99719.25;5136013;27;20025;-42
2023/11/27 10:24:01;;;;;;;2.08;1.60;;;;;;;7.37;38.45;99722.66;5135646;27;20015;-41
2023/11/27 10:26:33;;;;;;;2.15;1.50;;;;;;;7.36;38.30;99720.19;5135915;27;20524;-43
2023/11/27 10:28:58;;;;;;;2.90;1.65;;;;;;;8.10;37.61;99711.31;5135468;27;20111;-43
2023/11/27 10:31:26;;;;;;;2.47;1.50;;;;;;;8.11;36.89;99716.41;5135788;27;20027;-44
2023/11/27 10:33:52;;;;;;;1.80;1.50;;;;;;;7.66;36.83;99714.88;5135978;27;20064;-43
2023/11/27 10:36:23;;;;;;;2.10;1.50;;;;;;;7.48;38.44;99716.06;5135827;27;20528;-43
2023/11/27 10:39:00;;;;;;;1.90;1.38;;;;;;;7.65;37.79;99708.75;5135838;27;20065;-41
2023/11/27 10:41:26;;;;;;;1.60;1.48;;;;;;;7.76;37.41;99707.47;5135517;27;20098;-41
2023/11/27 10:43:52;;;;;;;1.60;1.50;;;;;;;7.74;37.93;99714.78;5135748;27;20019;-43
2023/11/27 10:46:18;;;;;;;2.00;1.33;;;;;;;7.84;37.34;99704.69;5135340;27;20019;-42
2023/11/27 10:48:47;;;;;;;2.35;1.67;;;;;;;7.89;37.49;99707.59;5135174;27;20455;-41
2023/11/27 10:51:13;;;;;;;3.40;1.60;;;;;;;8.25;37.63;99716.56;5135273;27;20019;-41
2023/11/27 10:53:40;;;;;;;3.10;1.70;;;;;;;7.99;38.26;99710.75;5134983;27;20034;-41
2023/11/27 10:56:09;;;;;;;3.00;1.40;;;;;;;7.51;38.71;99720.19;5135203;27;20426;-41
2023/11/27 10:58:35;;;;;;;2.28;1.50;;;;;;;7.58;37.26;99715.81;5135064;27;20069;-41
2023/11/27 11:01:07;;;;;;;2.25;1.50;;;;;;;7.58;37.37;99711.31;5135094;27;20115;-40
2023/11/27 11:03:34;;;;;;;1.95;1.50;;;;;;;7.40;37.84;99705.59;5135046;27;20031;-41
2023/11/27 11:06:00;;;;;;;5.53;1.90;;;;;;;7.54;38.07;99707.41;5135112;27;20103;-40
2023/11/27 11:08:27;;;;;;;4.32;2.13;;;;;;;7.47;37.18;99695.09;5135007;27;20031;-42
2023/11/27 11:10:54;;;;;;;2.38;1.60;;;;;;;6.88;38.51;99691.44;5134673;27;20034;-40
2023/11/27 11:13:23;;;;;;;1.95;1.48;;;;;;;7.42;38.86;99698.28;5134798;27;20053;-42
2023/11/27 11:16:07;;;;;;;3.47;2.00;;;;;;;7.42;38.81;99703.56;5134973;27;20062;-40
2023/11/27 11:18:44;;;;;;;2.47;1.75;;;;;;;7.80;37.55;99696.28;5134761;27;20092;-41
2023/11/27 11:21:21;;;;;;;3.20;1.80;;;;;;;8.08;37.20;99695.59;5134521;27;20031;-41
2023/11/27 11:24:08;;;;;;;3.45;1.90;;;;;;;8.27;36.68;99688.03;5134646;27;20028;-41
2023/11/27 11:27:07;;;;;;;2.35;1.65;;;;;;;8.31;37.29;99692.75;5134625;27;20105;-42
2023/11/27 11:29:36;;;;;;;3.47;2.03;;;;;;;8.08;37.11;99705.38;5133573;27;20410;-43
2023/11/27 11:32:10;;;;;;;3.03;1.88;;;;;;;8.08;36.79;99698.22;5134540;27;20030;-44
2023/11/27 11:34:41;;;;;;;3.58;1.83;;;;;;;8.37;36.44;99688.50;5134637;27;20031;-42
2023/11/27 11:37:11;;;;;;;3.10;2.17;;;;;;;8.14;37.49;99684.22;5134422;27;20023;-41
2023/11/27 11:39:40;;;;;;;4.15;2.20;;;;;;;8.07;37.26;99685.97;5134315;27;20020;-43